Black Star — 9HA2911 — position and weather

sailwx.info

Track history (hours):
 
Tides and Currents Weather Stations Pressure Air Temp Water Temp Dewpoint Dewpoint Depression Visibility Wind Speed Wind Dir Waves Ship Positions

Black Star

Last reported at 2017-Aug-19 15:26 UTC. Time now 2017-Aug-19 16:53 UTC.
Position N 32°55' E 034°41'.

Length 128 m; draft 5.8 m.

Type: Ship (hazmat cat B). MMSI: 256714000.

Date/timePositionNaut miles runAvg speedWind from/ knotsBaromVisibWave heightAir tempDewpointWater temp
2017-Aug-19 15:26N 32°55' E 034°41'510.0
2017-Aug-19 14:57N 32°54' E 034°47'13 0.4
2017-Aug-18 05:01N 32°53' E 035°02'  
2017-Aug-14 04:11N 32°53' E 035°02'  
2017-Aug-11 23:44N 32°53' E 035°02'0 0.0
2017-Aug-11 23:27N 32°53' E 035°02'0 0.0
2017-Aug-11 21:38N 32°53' E 035°02'0 0.1
2017-Aug-11 21:23N 32°53' E 035°02'60 1.7
2017-Aug-10 09:25N 33°05' E 033°52'6212.2
2017-Aug-10 04:18N 33°34' E 032°46'412.0
2017-Aug-10 04:00N 33°36' E 032°43'911.9
2017-Aug-10 03:15N 33°40' E 032°33'611.9
2017-Aug-10 02:44N 33°42' E 032°26'312.1
2017-Aug-10 02:30N 33°43' E 032°23'612.1
2017-Aug-10 02:00N 33°46' E 032°17'612.0
2017-Aug-10 01:28N 33°49' E 032°10'612.0
2017-Aug-10 01:00N 33°52' E 032°04'612.1
2017-Aug-10 00:30N 33°55' E 031°58'612.2
2017-Aug-10 00:00N 33°58' E 031°52'612.2
2017-Aug-09 23:30N 34°01' E 031°45'612.3
2017-Aug-09 23:00N 34°04' E 031°39'712.2
2017-Aug-09 22:24N 34°08' E 031°31'512.3
2017-Aug-09 22:00N 34°10' E 031°26'612.3
2017-Aug-09 21:30N 34°13' E 031°19'712.3
2017-Aug-09 20:55N 34°16' E 031°11'512.0
2017-Aug-09 20:30N 34°18' E 031°06'1111.8
2017-Aug-09 19:36N 34°23' E 030°55'211.9
2017-Aug-09 19:28N 34°24' E 030°53'512.0
2017-Aug-09 19:00N 34°27' E 030°47'612.0
2017-Aug-09 18:30N 34°29' E 030°41'612.0
2017-Aug-09 17:59N 34°33' E 030°34'1012.2
2017-Aug-09 17:13N 34°38' E 030°24'312.3
2017-Aug-09 17:00N 34°39' E 030°22'  
Track history (hours):
 
Tides and Currents Weather Stations Pressure Air Temp Water Temp Dewpoint Dewpoint Depression Visibility Wind Speed Wind Dir Waves Ship Positions

Black Star

Last reported at 2017-Aug-19 15:26 UTC. Time now 2017-Aug-19 16:53 UTC.
Position N 32°55' E 034°41'.

Length 128 m; draft 5.8 m.

Type: Ship (hazmat cat B). MMSI: 256714000.

Date/timePositionNaut miles runAvg speedWind from/ knotsBaromVisibWave heightAir tempDewpointWater temp
2017-Aug-19 15:26N 32°55' E 034°41'510.0
2017-Aug-19 14:57N 32°54' E 034°47'13 0.4
2017-Aug-18 05:01N 32°53' E 035°02'  
2017-Aug-14 04:11N 32°53' E 035°02'  
2017-Aug-11 23:44N 32°53' E 035°02'0 0.0
2017-Aug-11 23:27N 32°53' E 035°02'0 0.0
2017-Aug-11 21:38N 32°53' E 035°02'0 0.1
2017-Aug-11 21:23N 32°53' E 035°02'60 1.7
2017-Aug-10 09:25N 33°05' E 033°52'6212.2
2017-Aug-10 04:18N 33°34' E 032°46'412.0
2017-Aug-10 04:00N 33°36' E 032°43'911.9
2017-Aug-10 03:15N 33°40' E 032°33'611.9
2017-Aug-10 02:44N 33°42' E 032°26'312.1
2017-Aug-10 02:30N 33°43' E 032°23'612.1
2017-Aug-10 02:00N 33°46' E 032°17'612.0
2017-Aug-10 01:28N 33°49' E 032°10'612.0
2017-Aug-10 01:00N 33°52' E 032°04'612.1
2017-Aug-10 00:30N 33°55' E 031°58'612.2
2017-Aug-10 00:00N 33°58' E 031°52'612.2
2017-Aug-09 23:30N 34°01' E 031°45'612.3
2017-Aug-09 23:00N 34°04' E 031°39'712.2
2017-Aug-09 22:24N 34°08' E 031°31'512.3
2017-Aug-09 22:00N 34°10' E 031°26'612.3
2017-Aug-09 21:30N 34°13' E 031°19'712.3
2017-Aug-09 20:55N 34°16' E 031°11'512.0
2017-Aug-09 20:30N 34°18' E 031°06'1111.8
2017-Aug-09 19:36N 34°23' E 030°55'211.9
2017-Aug-09 19:28N 34°24' E 030°53'512.0
2017-Aug-09 19:00N 34°27' E 030°47'612.0
2017-Aug-09 18:30N 34°29' E 030°41'612.0
2017-Aug-09 17:59N 34°33' E 030°34'1012.2
2017-Aug-09 17:13N 34°38' E 030°24'312.3
2017-Aug-09 17:00N 34°39' E 030°22'  

Dump ship's entire track history